createdAt,value
2018-03-31T00:02:15.881Z,9.30
2018-03-31T00:04:42.901Z,9.20
2018-03-31T00:07:09.857Z,9.20
2018-03-31T00:09:36.830Z,9.10
2018-03-31T00:12:04.553Z,9.10
2018-03-31T00:14:31.518Z,9.10
2018-03-31T00:16:58.464Z,9.10
2018-03-31T00:19:25.435Z,9.00
2018-03-31T00:21:53.152Z,8.90
2018-03-31T00:24:20.113Z,8.90
2018-03-31T00:26:47.065Z,8.90
2018-03-31T00:29:14.025Z,8.90
2018-03-31T00:31:41.754Z,8.90
2018-03-31T00:34:08.715Z,8.90
2018-03-31T00:36:35.671Z,8.90
2018-03-31T00:39:03.407Z,8.90
2018-03-31T00:41:30.366Z,8.90
2018-03-31T00:43:57.330Z,8.90
2018-03-31T00:46:25.053Z,8.80
2018-03-31T00:48:52.022Z,8.80
2018-03-31T00:51:18.977Z,8.80
2018-03-31T00:53:46.717Z,8.70
2018-03-31T00:56:13.681Z,8.70
2018-03-31T00:58:40.643Z,8.60
2018-03-31T01:01:08.365Z,8.60
2018-03-31T01:03:35.334Z,8.60
2018-03-31T01:06:02.290Z,8.60
2018-03-31T01:08:30.117Z,8.50
2018-03-31T01:10:57.147Z,8.50
2018-03-31T01:13:24.070Z,8.50
2018-03-31T01:15:51.015Z,8.50
2018-03-31T01:18:17.966Z,8.40
2018-03-31T01:20:44.929Z,8.40
2018-03-31T01:23:11.887Z,8.40
2018-03-31T01:25:38.937Z,8.40
2018-03-31T01:28:05.894Z,8.40
2018-03-31T01:30:32.859Z,8.40
2018-03-31T01:33:00.583Z,8.30
2018-03-31T01:35:27.625Z,8.30
2018-03-31T01:37:54.601Z,8.30
2018-03-31T01:40:21.562Z,8.30
2018-03-31T01:42:49.413Z,8.30
2018-03-31T01:45:16.369Z,8.30
2018-03-31T01:47:44.093Z,8.30
2018-03-31T01:50:11.141Z,8.30
2018-03-31T01:52:38.291Z,8.40
2018-03-31T01:55:05.258Z,8.30
2018-03-31T01:57:32.299Z,8.30
2018-03-31T01:59:59.255Z,8.30
2018-03-31T02:02:26.273Z,8.30
2018-03-31T02:04:53.317Z,8.30
2018-03-31T02:07:20.273Z,8.30
2018-03-31T02:09:47.244Z,8.30
2018-03-31T02:12:14.989Z,8.30
2018-03-31T02:14:41.939Z,8.30
2018-03-31T02:17:08.889Z,8.30
2018-03-31T02:19:36.616Z,8.30
2018-03-31T02:22:03.682Z,8.30
2018-03-31T02:24:31.440Z,8.30
2018-03-31T02:26:58.393Z,8.30
2018-03-31T02:29:25.371Z,8.30
2018-03-31T02:31:53.195Z,8.40
2018-03-31T02:34:20.172Z,8.40
2018-03-31T02:36:47.969Z,8.40
2018-03-31T02:39:14.958Z,8.40
2018-03-31T02:41:41.957Z,8.40
2018-03-31T02:44:08.942Z,8.40
2018-03-31T02:46:35.914Z,8.40
2018-03-31T02:49:03.641Z,8.40
2018-03-31T02:51:30.597Z,8.40
2018-03-31T02:53:57.554Z,8.40
2018-03-31T02:56:24.552Z,8.40
2018-03-31T02:58:51.517Z,8.40
2018-03-31T03:01:18.470Z,8.30
2018-03-31T03:03:45.474Z,8.40
2018-03-31T03:06:12.458Z,8.30
2018-03-31T03:08:39.410Z,8.30
2018-03-31T03:11:06.388Z,8.30
2018-03-31T03:13:34.111Z,8.20
2018-03-31T03:16:01.081Z,8.20
2018-03-31T03:18:28.025Z,8.20
2018-03-31T03:20:54.989Z,8.20
2018-03-31T03:23:22.705Z,8.20
2018-03-31T03:25:49.762Z,8.20
2018-03-31T03:28:16.807Z,8.20
2018-03-31T03:30:43.845Z,8.20
2018-03-31T03:33:10.803Z,8.20
2018-03-31T03:35:37.765Z,8.20
2018-03-31T03:38:05.489Z,8.20
2018-03-31T03:40:32.545Z,8.20
2018-03-31T03:42:59.666Z,8.20
2018-03-31T03:45:26.649Z,8.20
2018-03-31T03:47:53.614Z,8.20
2018-03-31T03:50:20.633Z,8.20
2018-03-31T03:52:47.589Z,8.20
2018-03-31T03:55:14.553Z,8.20
2018-03-31T03:57:42.272Z,8.10
2018-03-31T04:00:09.234Z,8.10
2018-03-31T04:02:36.294Z,8.20
2018-03-31T04:05:03.365Z,8.20
2018-03-31T04:07:31.089Z,8.10
2018-03-31T04:09:58.045Z,8.10
2018-03-31T04:12:25.004Z,8.10
2018-03-31T04:14:52.736Z,8.00
2018-03-31T04:17:19.694Z,8.00
2018-03-31T04:19:46.733Z,8.00
2018-03-31T04:22:13.693Z,8.00
2018-03-31T04:24:40.654Z,8.00
2018-03-31T04:27:08.377Z,8.00
2018-03-31T04:29:35.338Z,8.00
2018-03-31T04:32:02.306Z,8.00
2018-03-31T04:34:30.033Z,8.10
2018-03-31T04:36:57.056Z,8.10
2018-03-31T04:39:24.029Z,8.10
2018-03-31T04:41:51.020Z,8.10
2018-03-31T04:44:18.017Z,8.10
2018-03-31T04:46:44.976Z,8.10
2018-03-31T04:49:11.934Z,8.10
2018-03-31T04:51:38.902Z,8.10
2018-03-31T04:54:05.862Z,8.20
2018-03-31T04:56:32.835Z,8.20
2018-03-31T04:58:59.794Z,8.20
2018-03-31T05:01:26.753Z,8.20
2018-03-31T05:03:53.705Z,8.20
2018-03-31T05:06:21.433Z,8.20
2018-03-31T05:08:48.393Z,8.20
2018-03-31T05:11:15.445Z,8.20
2018-03-31T05:13:42.397Z,8.20
2018-03-31T05:16:09.371Z,8.20
2018-03-31T05:18:36.326Z,8.30
2018-03-31T05:21:03.284Z,8.30
2018-03-31T05:23:30.241Z,8.30
2018-03-31T05:25:57.213Z,8.20
2018-03-31T05:28:24.160Z,8.20
2018-03-31T05:30:51.138Z,8.20
2018-03-31T05:33:18.104Z,8.20
2018-03-31T05:35:45.057Z,8.30
2018-03-31T05:38:12.100Z,8.30
2018-03-31T05:40:39.050Z,8.30
2018-03-31T05:43:06.009Z,8.30
2018-03-31T05:45:32.981Z,8.30
2018-03-31T05:47:59.938Z,8.30
2018-03-31T05:50:27.661Z,8.30
2018-03-31T05:52:54.633Z,8.30
2018-03-31T05:55:21.585Z,8.30
2018-03-31T05:57:48.549Z,8.30
2018-03-31T06:00:16.270Z,8.30
2018-03-31T06:02:43.332Z,8.20
2018-03-31T06:05:10.382Z,8.30
2018-03-31T06:07:37.339Z,8.30
2018-03-31T06:10:05.065Z,8.30
2018-03-31T06:12:32.041Z,8.20
2018-03-31T06:14:59.783Z,8.30
2018-03-31T06:17:26.741Z,8.30
2018-03-31T06:19:53.774Z,8.40
2018-03-31T06:22:20.746Z,8.40
2018-03-31T06:24:48.480Z,8.50
2018-03-31T06:27:15.446Z,8.50
2018-03-31T06:29:43.173Z,8.60
2018-03-31T06:32:10.242Z,8.60
2018-03-31T06:34:37.279Z,8.60
2018-03-31T06:37:04.240Z,8.60
2018-03-31T06:39:31.190Z,8.60
2018-03-31T06:41:58.243Z,8.60
2018-03-31T06:44:26.085Z,8.60
2018-03-31T06:46:53.080Z,8.50
2018-03-31T06:49:20.030Z,8.50
2018-03-31T06:51:47.010Z,8.50
2018-03-31T06:54:13.974Z,8.60
2018-03-31T06:56:40.938Z,8.60
2018-03-31T06:59:07.934Z,8.70
2018-03-31T07:01:34.894Z,8.80
2018-03-31T07:04:01.862Z,8.70
2018-03-31T07:06:28.817Z,8.70
2018-03-31T07:08:56.550Z,8.70
2018-03-31T07:11:23.506Z,8.60
2018-03-31T07:13:50.472Z,8.60
2018-03-31T07:16:18.205Z,8.60
2018-03-31T07:18:45.224Z,8.60
2018-03-31T07:21:12.195Z,8.60
2018-03-31T07:23:39.155Z,8.60
2018-03-31T07:26:06.120Z,8.60
2018-03-31T07:28:33.862Z,8.60
2018-03-31T07:31:00.841Z,8.60
2018-03-31T07:33:27.814Z,8.70
2018-03-31T07:35:54.770Z,8.60
2018-03-31T07:38:21.734Z,8.70
2018-03-31T07:40:48.701Z,8.60
2018-03-31T07:43:16.437Z,8.70
2018-03-31T07:45:43.407Z,8.60
2018-03-31T07:48:11.148Z,8.70
2018-03-31T07:50:38.100Z,8.70
2018-03-31T07:53:05.069Z,8.80
2018-03-31T07:55:32.802Z,8.70
2018-03-31T07:57:59.787Z,8.70
2018-03-31T08:00:27.518Z,8.90
2018-03-31T08:02:54.490Z,8.90
2018-03-31T08:05:22.218Z,9.00
2018-03-31T08:07:49.188Z,8.90
2018-03-31T08:10:16.905Z,9.00
2018-03-31T08:12:43.870Z,8.90
2018-03-31T08:15:10.839Z,8.90
2018-03-31T08:17:38.569Z,8.90
2018-03-31T08:20:05.530Z,8.90
2018-03-31T08:22:32.500Z,8.90
2018-03-31T08:25:00.234Z,9.00
2018-03-31T08:27:27.203Z,9.00
2018-03-31T08:29:54.921Z,9.10
2018-03-31T08:32:21.913Z,9.10
2018-03-31T08:34:49.630Z,9.30
2018-03-31T08:37:16.597Z,9.30
2018-03-31T08:39:43.561Z,9.30
2018-03-31T08:42:11.286Z,9.40
2018-03-31T08:44:38.250Z,9.40
2018-03-31T08:47:05.220Z,9.50
2018-03-31T08:49:32.170Z,9.50
2018-03-31T08:51:59.127Z,9.60
2018-03-31T08:54:26.090Z,9.70
2018-03-31T08:56:53.044Z,9.70
2018-03-31T08:59:20.021Z,9.80
2018-03-31T09:01:46.978Z,9.90
2018-03-31T09:04:14.717Z,10.00
2018-03-31T09:06:41.677Z,10.00
2018-03-31T09:09:09.430Z,10.20
2018-03-31T09:11:36.373Z,10.20
2018-03-31T09:14:03.348Z,10.20
2018-03-31T09:16:31.065Z,10.10
2018-03-31T09:18:58.033Z,10.10
2018-03-31T09:21:24.994Z,10.20
2018-03-31T09:23:52.735Z,10.30
2018-03-31T09:26:19.706Z,10.30
2018-03-31T09:28:47.437Z,10.40
2018-03-31T09:31:14.405Z,10.40
2018-03-31T09:33:42.146Z,10.50
2018-03-31T09:36:09.119Z,10.50
2018-03-31T09:38:36.850Z,10.60
2018-03-31T09:41:03.818Z,10.60
2018-03-31T09:43:31.553Z,10.70
2018-03-31T09:45:58.516Z,10.70
2018-03-31T09:48:25.478Z,10.80
2018-03-31T09:50:53.209Z,10.70
2018-03-31T09:53:20.190Z,10.70
2018-03-31T09:55:47.906Z,10.60
2018-03-31T09:58:14.891Z,10.60
2018-03-31T10:00:41.842Z,10.60
2018-03-31T10:03:09.580Z,10.80
2018-03-31T10:05:36.546Z,10.80
2018-03-31T10:08:04.270Z,11.10
2018-03-31T10:10:31.238Z,11.10
2018-03-31T10:12:58.206Z,11.20
2018-03-31T10:15:25.942Z,11.10
2018-03-31T10:17:52.912Z,11.10
2018-03-31T10:20:19.890Z,11.10
2018-03-31T10:22:46.852Z,11.20
2018-03-31T10:25:13.823Z,11.30
2018-03-31T10:27:40.797Z,11.50
2018-03-31T10:30:08.529Z,11.40
2018-03-31T10:32:35.498Z,11.40
2018-03-31T10:35:03.228Z,11.40
2018-03-31T10:37:30.181Z,11.30
2018-03-31T10:39:57.179Z,11.20
2018-03-31T10:42:24.143Z,11.20
2018-03-31T10:44:51.123Z,11.40
2018-03-31T10:47:18.077Z,11.30
2018-03-31T10:49:45.810Z,11.50
2018-03-31T10:52:12.766Z,11.50
2018-03-31T10:54:39.750Z,11.80
2018-03-31T10:57:07.474Z,12.60
2018-03-31T10:59:34.442Z,12.50
2018-03-31T11:02:02.170Z,13.30
2018-03-31T11:04:29.188Z,13.20
2018-03-31T11:06:56.102Z,13.30
2018-03-31T11:09:23.829Z,13.10
2018-03-31T11:11:50.793Z,13.10
2018-03-31T11:14:17.770Z,13.10
2018-03-31T11:16:44.726Z,13.00
2018-03-31T11:19:11.697Z,12.80
2018-03-31T11:21:38.657Z,12.50
2018-03-31T11:24:05.627Z,12.20
2018-03-31T11:26:33.361Z,11.80
2018-03-31T11:29:00.343Z,11.80
2018-03-31T11:31:28.066Z,11.80
2018-03-31T11:33:55.045Z,11.80
2018-03-31T11:36:22.767Z,11.80
2018-03-31T11:38:49.725Z,11.80
2018-03-31T11:41:16.702Z,11.70
2018-03-31T11:43:44.427Z,11.70
2018-03-31T11:46:11.401Z,11.80
2018-03-31T11:48:39.168Z,12.00
2018-03-31T11:51:06.097Z,11.90
2018-03-31T11:53:33.048Z,12.00
2018-03-31T11:56:00.791Z,12.10
2018-03-31T11:58:27.750Z,12.10
2018-03-31T12:00:54.749Z,12.20
2018-03-31T12:03:21.674Z,12.10
2018-03-31T12:05:48.645Z,12.00
2018-03-31T12:08:15.610Z,11.90
2018-03-31T12:10:42.573Z,11.90
2018-03-31T12:13:09.541Z,12.00
2018-03-31T12:15:37.282Z,12.10
2018-03-31T12:18:04.246Z,12.10
2018-03-31T12:20:31.233Z,12.20
2018-03-31T12:22:58.186Z,12.40
2018-03-31T12:25:25.157Z,12.40
2018-03-31T12:27:52.109Z,12.50
2018-03-31T12:30:19.074Z,12.40
2018-03-31T12:32:46.815Z,12.30
2018-03-31T12:35:13.774Z,12.30
2018-03-31T12:37:40.747Z,12.40
2018-03-31T12:40:07.718Z,12.40
2018-03-31T12:42:34.680Z,12.50
2018-03-31T12:45:01.654Z,12.50
2018-03-31T12:47:29.378Z,12.80
2018-03-31T12:49:56.348Z,12.80
2018-03-31T12:52:23.310Z,12.90
2018-03-31T12:54:51.056Z,12.90
2018-03-31T12:57:18.022Z,12.80
2018-03-31T12:59:45.755Z,12.90
2018-03-31T13:02:12.719Z,12.80
2018-03-31T13:04:40.462Z,12.80
2018-03-31T13:07:07.426Z,12.80
2018-03-31T13:09:34.383Z,12.60
2018-03-31T13:12:01.367Z,12.50
2018-03-31T13:14:28.340Z,12.50
2018-03-31T13:16:55.314Z,12.60
2018-03-31T13:19:23.050Z,12.80
2018-03-31T13:21:50.022Z,12.80
2018-03-31T13:24:17.754Z,13.00
2018-03-31T13:26:44.730Z,13.00
2018-03-31T13:29:12.524Z,12.90
2018-03-31T13:31:39.496Z,12.90
2018-03-31T13:34:06.460Z,13.00
2018-03-31T13:36:33.432Z,13.10
2018-03-31T13:39:01.147Z,12.80
2018-03-31T13:41:28.119Z,12.80
2018-03-31T13:43:55.090Z,12.80
2018-03-31T13:46:22.813Z,12.90
2018-03-31T13:48:49.782Z,12.90
2018-03-31T13:51:17.520Z,13.10
2018-03-31T13:53:44.477Z,13.10
2018-03-31T13:56:11.499Z,13.10
2018-03-31T13:58:39.161Z,13.00
2018-03-31T14:01:06.144Z,13.00
2018-03-31T14:03:33.870Z,13.00
2018-03-31T14:06:00.832Z,13.00
2018-03-31T14:08:27.788Z,12.90
2018-03-31T14:10:55.538Z,13.00
2018-03-31T14:13:22.494Z,13.00
2018-03-31T14:15:49.466Z,13.00
2018-03-31T14:18:16.428Z,13.00
2018-03-31T14:20:43.403Z,13.00
2018-03-31T14:23:10.415Z,13.00
2018-03-31T14:25:37.336Z,12.90
2018-03-31T14:28:05.058Z,12.90
2018-03-31T14:30:32.025Z,12.90
2018-03-31T14:32:58.994Z,12.90
2018-03-31T14:35:26.735Z,12.90
2018-03-31T14:37:53.701Z,12.90
2018-03-31T14:40:21.441Z,12.90
2018-03-31T14:42:49.220Z,12.90
2018-03-31T14:45:16.952Z,13.30
2018-03-31T14:47:43.917Z,13.30
2018-03-31T14:50:11.641Z,15.60
2018-03-31T14:52:38.619Z,15.50
2018-03-31T14:55:05.573Z,16.20
2018-03-31T14:57:33.316Z,17.20
2018-03-31T15:00:00.274Z,17.20
2018-03-31T15:02:27.242Z,17.70
2018-03-31T15:04:54.209Z,17.80
2018-03-31T15:07:21.199Z,18.10
2018-03-31T15:09:48.157Z,18.20
2018-03-31T15:12:15.896Z,19.20
2018-03-31T15:14:42.858Z,19.20
2018-03-31T15:17:09.842Z,20.30
2018-03-31T15:19:36.797Z,21.40
2018-03-31T15:22:03.762Z,22.60
2018-03-31T15:24:30.727Z,23.70
2018-03-31T15:26:57.706Z,24.80
2018-03-31T15:29:25.435Z,25.00
2018-03-31T15:31:52.403Z,25.00
2018-03-31T15:34:19.361Z,25.30
2018-03-31T15:36:47.105Z,26.40
2018-03-31T15:39:14.062Z,26.30
2018-03-31T15:41:41.805Z,26.80
2018-03-31T15:44:08.758Z,26.80
2018-03-31T15:46:36.518Z,25.80
2018-03-31T15:49:03.446Z,25.70
2018-03-31T15:51:30.422Z,25.40
2018-03-31T15:53:58.146Z,23.20
2018-03-31T15:56:25.117Z,23.10
2018-03-31T15:58:52.849Z,19.80
2018-03-31T16:01:19.826Z,19.70
2018-03-31T16:03:47.551Z,17.40
2018-03-31T16:06:14.525Z,17.30
2018-03-31T16:08:41.490Z,16.50
2018-03-31T16:11:09.213Z,15.50
2018-03-31T16:13:36.190Z,15.50
2018-03-31T16:16:03.909Z,15.10
2018-03-31T16:18:30.877Z,15.00
2018-03-31T16:20:57.845Z,14.90
2018-03-31T16:23:24.813Z,14.70
2018-03-31T16:25:51.778Z,14.60
2018-03-31T16:28:18.748Z,14.40
2018-03-31T16:30:45.727Z,14.20
2018-03-31T16:33:12.686Z,13.90
2018-03-31T16:35:39.670Z,13.70
2018-03-31T16:38:06.646Z,13.60
2018-03-31T16:40:33.613Z,13.60
2018-03-31T16:43:01.348Z,13.40
2018-03-31T16:45:28.296Z,13.40
2018-03-31T16:47:55.270Z,13.40
2018-03-31T16:50:22.996Z,13.30
2018-03-31T16:52:49.957Z,13.30
2018-03-31T16:55:16.925Z,13.20
2018-03-31T16:57:44.662Z,13.10
2018-03-31T17:00:11.609Z,13.10
2018-03-31T17:02:38.582Z,13.10
2018-03-31T17:05:05.546Z,13.10
2018-03-31T17:07:32.513Z,13.00
2018-03-31T17:09:59.469Z,13.00
2018-03-31T17:12:26.445Z,12.90
2018-03-31T17:14:54.165Z,12.80
2018-03-31T17:17:21.138Z,12.80
2018-03-31T17:19:48.114Z,12.80
2018-03-31T17:22:15.093Z,12.70
2018-03-31T17:24:42.050Z,12.70
2018-03-31T17:27:09.018Z,12.60
2018-03-31T17:29:35.977Z,12.50
2018-03-31T17:32:03.723Z,12.30
2018-03-31T17:34:30.674Z,12.30
2018-03-31T17:36:57.667Z,12.30
2018-03-31T17:39:24.614Z,12.20
2018-03-31T17:41:51.573Z,12.10
2018-03-31T17:44:18.541Z,12.10
2018-03-31T17:46:45.505Z,12.00
2018-03-31T17:49:13.300Z,11.80
2018-03-31T17:51:40.202Z,11.80
2018-03-31T17:54:07.177Z,11.80
2018-03-31T17:56:34.901Z,11.70
2018-03-31T17:59:01.870Z,11.70
2018-03-31T18:01:29.596Z,11.60
2018-03-31T18:03:56.570Z,11.60
2018-03-31T18:06:23.536Z,11.50
2018-03-31T18:08:51.275Z,11.50
2018-03-31T18:11:18.231Z,11.50
2018-03-31T18:13:45.961Z,11.40
2018-03-31T18:16:12.927Z,11.40
2018-03-31T18:18:39.899Z,11.40
2018-03-31T18:21:06.859Z,11.30
2018-03-31T18:23:33.910Z,11.30
2018-03-31T18:26:00.862Z,11.20
2018-03-31T18:28:27.874Z,11.20
2018-03-31T18:30:55.601Z,11.10
2018-03-31T18:33:22.645Z,11.00
2018-03-31T18:35:49.690Z,11.00
2018-03-31T18:38:16.652Z,10.90
2018-03-31T18:40:44.402Z,10.80
2018-03-31T18:43:11.369Z,10.80
2018-03-31T18:45:39.110Z,10.80
2018-03-31T18:48:06.176Z,10.80
2018-03-31T18:50:33.122Z,10.70
2018-03-31T18:53:00.095Z,10.60
2018-03-31T18:55:27.058Z,10.50
2018-03-31T18:57:54.017Z,10.40
2018-03-31T19:00:20.969Z,10.30
2018-03-31T19:02:47.974Z,10.20
2018-03-31T19:05:14.889Z,10.20
2018-03-31T19:07:41.846Z,10.10
2018-03-31T19:10:09.584Z,9.90
2018-03-31T19:12:36.630Z,9.90
2018-03-31T19:15:03.592Z,9.90
2018-03-31T19:17:30.551Z,9.80
2018-03-31T19:19:57.509Z,9.80
2018-03-31T19:22:24.512Z,9.70
2018-03-31T19:24:57.023Z,9.70
2018-03-31T19:27:24.756Z,9.60
2018-03-31T19:29:51.718Z,9.60
2018-03-31T19:32:19.448Z,9.60
2018-03-31T19:34:46.499Z,9.60
2018-03-31T19:37:13.453Z,9.60
2018-03-31T19:39:46.195Z,9.60
2018-03-31T19:42:13.992Z,9.40
2018-03-31T19:44:41.061Z,9.50
2018-03-31T19:47:08.895Z,9.40
2018-03-31T19:49:35.858Z,9.30
2018-03-31T19:52:02.813Z,9.30
2018-03-31T19:54:30.550Z,9.20
2018-03-31T19:56:57.525Z,9.20
2018-03-31T19:59:25.258Z,9.20
2018-03-31T20:01:52.251Z,9.20
2018-03-31T20:04:19.981Z,9.20
2018-03-31T20:06:47.733Z,9.20
2018-03-31T20:09:14.701Z,9.20
2018-03-31T20:11:43.285Z,9.10
2018-03-31T20:14:10.242Z,9.10
2018-03-31T20:16:37.201Z,9.10
2018-03-31T20:19:04.185Z,9.10
2018-03-31T20:21:31.137Z,9.10
2018-03-31T20:23:58.110Z,9.10
2018-03-31T20:26:25.838Z,9.10
2018-03-31T20:28:52.857Z,9.10
2018-03-31T20:31:19.799Z,9.10
2018-03-31T20:33:46.774Z,9.20
2018-03-31T20:36:13.741Z,9.20
2018-03-31T20:38:40.714Z,9.20
2018-03-31T20:41:08.425Z,9.20
2018-03-31T20:43:35.397Z,9.20
2018-03-31T20:46:02.354Z,9.20
2018-03-31T20:48:30.077Z,9.30
2018-03-31T20:50:57.059Z,9.30
2018-03-31T20:53:24.507Z,9.30
2018-03-31T20:55:51.478Z,9.40
2018-03-31T20:58:19.186Z,9.60
2018-03-31T21:00:46.176Z,9.60
2018-03-31T21:03:13.896Z,9.70
2018-03-31T21:05:40.864Z,9.70
2018-03-31T21:08:08.713Z,9.80
2018-03-31T21:10:35.710Z,9.80
2018-03-31T21:13:03.431Z,9.90
2018-03-31T21:15:31.181Z,9.90
2018-03-31T21:17:58.129Z,9.90
2018-03-31T21:20:25.097Z,9.90
2018-03-31T21:22:52.046Z,9.90
2018-03-31T21:25:19.781Z,9.80
2018-03-31T21:27:46.746Z,9.80
2018-03-31T21:30:13.717Z,9.80
2018-03-31T21:32:40.687Z,9.80
2018-03-31T21:35:07.694Z,9.70
2018-03-31T21:37:34.630Z,9.70
2018-03-31T21:40:02.371Z,9.70
2018-03-31T21:42:29.339Z,9.70
2018-03-31T21:44:56.305Z,9.70
2018-03-31T21:47:23.263Z,9.70
2018-03-31T21:49:50.230Z,9.70
2018-03-31T21:52:17.188Z,9.70
2018-03-31T21:54:44.158Z,9.70
2018-03-31T21:57:11.109Z,9.80
2018-03-31T21:59:38.836Z,9.80
2018-03-31T22:02:05.794Z,9.70
2018-03-31T22:04:32.802Z,9.70
2018-03-31T22:06:59.753Z,9.70
2018-03-31T22:09:26.718Z,9.70
2018-03-31T22:11:53.683Z,9.70
2018-03-31T22:14:26.341Z,9.70
2018-03-31T22:16:53.362Z,9.70
2018-03-31T22:19:20.266Z,9.70
2018-03-31T22:21:47.998Z,9.60
2018-03-31T22:24:14.965Z,9.60
2018-03-31T22:26:41.925Z,9.60
2018-03-31T22:29:09.646Z,9.60
2018-03-31T22:31:36.625Z,9.60
2018-03-31T22:34:03.574Z,9.60
2018-03-31T22:36:31.301Z,9.50
2018-03-31T22:38:58.267Z,9.50
2018-03-31T22:41:25.230Z,9.50
2018-03-31T22:43:52.951Z,9.50
2018-03-31T22:46:19.930Z,9.50
2018-03-31T22:48:47.650Z,9.50
2018-03-31T22:51:14.613Z,9.50
2018-03-31T22:53:41.578Z,9.50
2018-03-31T22:56:08.540Z,9.50
2018-03-31T22:58:36.266Z,9.40
2018-03-31T23:01:03.237Z,9.40
2018-03-31T23:03:30.970Z,9.40
2018-03-31T23:05:58.021Z,9.40
2018-03-31T23:08:25.062Z,9.40
2018-03-31T23:10:52.034Z,9.40
2018-03-31T23:13:18.982Z,9.40
2018-03-31T23:15:46.730Z,9.40
2018-03-31T23:18:13.672Z,9.40
2018-03-31T23:20:40.636Z,9.40
2018-03-31T23:23:08.368Z,9.40
2018-03-31T23:25:35.326Z,9.40
2018-03-31T23:28:02.275Z,9.40
2018-03-31T23:30:29.241Z,9.50
2018-03-31T23:32:56.954Z,9.50
2018-03-31T23:35:23.918Z,9.40
2018-03-31T23:37:50.898Z,9.50
2018-03-31T23:40:18.730Z,9.50
2018-03-31T23:42:45.677Z,9.50
2018-03-31T23:45:12.639Z,9.50
2018-03-31T23:47:39.598Z,9.50
2018-03-31T23:50:07.417Z,9.50
2018-03-31T23:52:34.509Z,9.50
2018-03-31T23:55:02.230Z,9.50
2018-03-31T23:57:29.282Z,9.50
2018-03-31T23:59:56.232Z,9.50
